sensor_id;sensor_type;location;lat;lon;timestamp;pressure;altitude;pressure_sealevel;temperature;humidity
53647;BME280;39550;52.230;5.194;2023-04-09T00:02:18;102532.56;;;9.28;77.45
53647;BME280;39550;52.230;5.194;2023-04-09T00:04:43;102533.38;;;9.27;77.73
53647;BME280;39550;52.230;5.194;2023-04-09T00:07:09;102535.06;;;9.26;77.81
53647;BME280;39550;52.230;5.194;2023-04-09T00:09:35;102529.03;;;9.26;77.83
53647;BME280;39550;52.230;5.194;2023-04-09T00:12:00;102532.41;;;9.25;77.21
53647;BME280;39550;52.230;5.194;2023-04-09T00:14:26;102528.91;;;9.23;77.49
53647;BME280;39550;52.230;5.194;2023-04-09T00:16:51;102536.69;;;9.24;77.47
53647;BME280;39550;52.230;5.194;2023-04-09T00:19:17;102534.13;;;9.24;77.85
53647;BME280;39550;52.230;5.194;2023-04-09T00:21:42;102534.06;;;9.23;77.79
53647;BME280;39550;52.230;5.194;2023-04-09T00:24:07;102525.28;;;9.17;77.74
53647;BME280;39550;52.230;5.194;2023-04-09T00:26:33;102528.06;;;9.22;77.69
53647;BME280;39550;52.230;5.194;2023-04-09T00:28:58;102523.78;;;9.23;77.72
53647;BME280;39550;52.230;5.194;2023-04-09T00:31:23;102522.81;;;9.20;77.78
53647;BME280;39550;52.230;5.194;2023-04-09T00:33:49;102520.25;;;9.20;77.50
53647;BME280;39550;52.230;5.194;2023-04-09T00:36:15;102499.38;;;9.13;77.95
53647;BME280;39550;52.230;5.194;2023-04-09T00:38:41;102512.31;;;9.14;77.75
53647;BME280;39550;52.230;5.194;2023-04-09T00:41:06;102511.59;;;9.18;77.69
53647;BME280;39550;52.230;5.194;2023-04-09T00:43:32;102509.03;;;9.18;78.10
53647;BME280;39550;52.230;5.194;2023-04-09T00:45:58;102516.75;;;9.18;77.95
53647;BME280;39550;52.230;5.194;2023-04-09T00:48:24;102516.75;;;9.18;78.17
53647;BME280;39550;52.230;5.194;2023-04-09T00:50:49;102501.06;;;9.12;78.10
53647;BME280;39550;52.230;5.194;2023-04-09T00:53:15;102500.19;;;9.12;77.59
53647;BME280;39550;52.230;5.194;2023-04-09T00:55:41;102507.22;;;9.16;78.08
53647;BME280;39550;52.230;5.194;2023-04-09T00:58:06;102502.00;;;9.14;77.78
53647;BME280;39550;52.230;5.194;2023-04-09T01:00:32;102503.78;;;9.15;78.14
53647;BME280;39550;52.230;5.194;2023-04-09T01:02:57;102504.59;;;9.14;77.62
53647;BME280;39550;52.230;5.194;2023-04-09T01:08:29;102507.97;;;9.13;78.39
53647;BME280;39550;52.230;5.194;2023-04-09T01:11:19;102497.69;;;9.13;78.09
53647;BME280;39550;52.230;5.194;2023-04-09T01:13:55;102497.69;;;9.13;78.28
53647;BME280;39550;52.230;5.194;2023-04-09T01:16:23;102501.06;;;9.12;77.75
53647;BME280;39550;52.230;5.194;2023-04-09T01:19:08;102494.19;;;9.11;77.84
53647;BME280;39550;52.230;5.194;2023-04-09T01:21:36;102499.31;;;9.11;77.84
53647;BME280;39550;52.230;5.194;2023-04-09T01:26:47;102497.56;;;9.10;77.90
53647;BME280;39550;52.230;5.194;2023-04-09T01:29:19;102486.31;;;9.08;78.10
53647;BME280;39550;52.230;5.194;2023-04-09T01:31:45;102488.88;;;9.08;77.86
53647;BME280;39550;52.230;5.194;2023-04-09T01:34:13;102485.44;;;9.08;77.88
53647;BME280;39550;52.230;5.194;2023-04-09T01:36:39;102482.88;;;9.08;78.29
53647;BME280;39550;52.230;5.194;2023-04-09T01:39:06;102468.59;;;8.93;77.72
53647;BME280;39550;52.230;5.194;2023-04-09T01:41:33;102458.16;;;8.90;78.41
53647;BME280;39550;52.230;5.194;2023-04-09T01:44:01;102444.13;;;8.82;78.02
53647;BME280;39550;52.230;5.194;2023-04-09T01:46:28;102475.69;;;8.99;78.04
53647;BME280;39550;52.230;5.194;2023-04-09T01:48:54;102417.03;;;8.69;78.11
53647;BME280;39550;52.230;5.194;2023-04-09T01:51:20;102458.09;;;8.89;77.93
53647;BME280;39550;52.230;5.194;2023-04-09T01:53:46;102472.16;;;8.97;77.82
53647;BME280;39550;52.230;5.194;2023-04-09T01:56:11;102416.88;;;8.64;77.93
53647;BME280;39550;52.230;5.194;2023-04-09T01:58:36;102475.00;;;9.03;78.01
53647;BME280;39550;52.230;5.194;2023-04-09T02:03:43;102481.75;;;9.01;78.81
53647;BME280;39550;52.230;5.194;2023-04-09T02:06:15;102481.75;;;9.01;77.78
53647;BME280;39550;52.230;5.194;2023-04-09T02:08:46;102482.66;;;9.01;77.97
53647;BME280;39550;52.230;5.194;2023-04-09T02:11:13;102443.88;;;8.76;78.61
53647;BME280;39550;52.230;5.194;2023-04-09T02:13:39;102455.41;;;8.85;78.36
53647;BME280;39550;52.230;5.194;2023-04-09T02:16:08;102457.28;;;8.90;78.21
53647;BME280;39550;52.230;5.194;2023-04-09T02:18:35;102441.38;;;8.77;78.14
53647;BME280;39550;52.230;5.194;2023-04-09T02:21:00;102454.56;;;8.85;77.85
53647;BME280;39550;52.230;5.194;2023-04-09T02:23:26;102475.56;;;8.96;78.42
53647;BME280;39550;52.230;5.194;2023-04-09T02:25:52;102420.31;;;8.65;78.38
53647;BME280;39550;52.230;5.194;2023-04-09T02:28:18;102415.03;;;8.62;78.56
53647;BME280;39550;52.230;5.194;2023-04-09T02:30:43;102430.97;;;8.74;78.40
53647;BME280;39550;52.230;5.194;2023-04-09T02:33:09;102415.84;;;8.61;78.12
53647;BME280;39550;52.230;5.194;2023-04-09T02:35:34;102427.44;;;8.72;78.36
53647;BME280;39550;52.230;5.194;2023-04-09T02:37:59;102419.38;;;8.63;78.44
53647;BME280;39550;52.230;5.194;2023-04-09T02:40:25;102406.38;;;8.60;77.98
53647;BME280;39550;52.230;5.194;2023-04-09T02:42:51;102441.47;;;8.80;78.68
53647;BME280;39550;52.230;5.194;2023-04-09T02:45:17;102459.06;;;8.91;78.24
53647;BME280;39550;52.230;5.194;2023-04-09T02:47:42;102452.03;;;8.86;78.14
53647;BME280;39550;52.230;5.194;2023-04-09T02:50:08;102466.09;;;8.95;78.33
53647;BME280;39550;52.230;5.194;2023-04-09T02:52:33;102432.78;;;8.77;78.38
53647;BME280;39550;52.230;5.194;2023-04-09T02:54:59;102467.69;;;8.93;78.37
53647;BME280;39550;52.230;5.194;2023-04-09T02:57:24;102404.72;;;8.60;78.47
53647;BME280;39550;52.230;5.194;2023-04-09T02:59:49;102454.84;;;8.93;78.28
53647;BME280;39550;52.230;5.194;2023-04-09T03:02:15;102465.13;;;8.93;78.65
53647;BME280;39550;52.230;5.194;2023-04-09T03:04:40;102391.84;;;8.60;78.15
53647;BME280;39550;52.230;5.194;2023-04-09T03:07:05;102399.50;;;8.59;78.65
53647;BME280;39550;52.230;5.194;2023-04-09T03:09:31;102394.38;;;8.59;78.42
53647;BME280;39550;52.230;5.194;2023-04-09T03:11:56;102390.84;;;8.57;78.56
53647;BME280;39550;52.230;5.194;2023-04-09T03:14:22;102416.06;;;8.65;78.01
53647;BME280;39550;52.230;5.194;2023-04-09T03:16:48;102440.09;;;8.89;79.00
53647;BME280;39550;52.230;5.194;2023-04-09T03:19:13;102417.31;;;8.75;78.19
53647;BME280;39550;52.230;5.194;2023-04-09T03:21:39;102351.19;;;8.30;78.71
53647;BME280;39550;52.230;5.194;2023-04-09T03:24:05;102402.31;;;8.65;78.50
53647;BME280;39550;52.230;5.194;2023-04-09T03:26:30;102401.38;;;8.63;78.58
53647;BME280;39550;52.230;5.194;2023-04-09T03:29:04;102440.06;;;8.87;78.32
53647;BME280;39550;52.230;5.194;2023-04-09T03:31:30;102409.38;;;8.71;78.85
53647;BME280;39550;52.230;5.194;2023-04-09T03:33:55;102355.84;;;8.39;78.75
53647;BME280;39550;52.230;5.194;2023-04-09T03:36:21;102440.00;;;8.85;78.57
53647;BME280;39550;52.230;5.194;2023-04-09T03:38:47;102438.22;;;8.84;78.66
53647;BME280;39550;52.230;5.194;2023-04-09T03:41:12;102401.50;;;8.66;78.56
53647;BME280;39550;52.230;5.194;2023-04-09T03:43:37;102415.44;;;8.71;78.45
53647;BME280;39550;52.230;5.194;2023-04-09T03:46:17;102375.06;;;8.47;79.00
53647;BME280;39550;52.230;5.194;2023-04-09T03:48:43;102381.25;;;8.52;78.69
53647;BME280;39550;52.230;5.194;2023-04-09T03:51:13;102432.22;;;8.84;78.88
53647;BME280;39550;52.230;5.194;2023-04-09T03:53:40;102369.03;;;8.47;78.71
53647;BME280;39550;52.230;5.194;2023-04-09T03:56:06;102359.47;;;8.44;79.26
53647;BME280;39550;52.230;5.194;2023-04-09T03:58:31;102346.28;;;8.35;79.31
53647;BME280;39550;52.230;5.194;2023-04-09T04:00:56;102373.53;;;8.52;78.78
53647;BME280;39550;52.230;5.194;2023-04-09T04:03:22;102305.97;;;8.13;79.07
53647;BME280;39550;52.230;5.194;2023-04-09T04:05:47;102422.69;;;8.81;78.88
53647;BME280;39550;52.230;5.194;2023-04-09T04:08:13;102420.94;;;8.80;78.72
53647;BME280;39550;52.230;5.194;2023-04-09T04:10:38;102321.00;;;8.25;79.13
53647;BME280;39550;52.230;5.194;2023-04-09T04:13:05;102390.47;;;8.68;78.88
53647;BME280;39550;52.230;5.194;2023-04-09T04:15:30;102362.34;;;8.50;79.36
53647;BME280;39550;52.230;5.194;2023-04-09T04:17:56;102414.06;;;8.79;79.46
53647;BME280;39550;52.230;5.194;2023-04-09T04:20:21;102391.22;;;8.66;79.12
53647;BME280;39550;52.230;5.194;2023-04-09T04:22:46;102393.09;;;8.70;78.79
53647;BME280;39550;52.230;5.194;2023-04-09T04:25:12;102408.00;;;8.79;79.54
53647;BME280;39550;52.230;5.194;2023-04-09T04:27:40;102361.66;;;8.55;79.32
53647;BME280;39550;52.230;5.194;2023-04-09T04:30:06;102393.34;;;8.76;79.06
53647;BME280;39550;52.230;5.194;2023-04-09T04:32:32;102345.69;;;8.42;79.45
53647;BME280;39550;52.230;5.194;2023-04-09T04:34:57;102374.63;;;8.58;78.91
53647;BME280;39550;52.230;5.194;2023-04-09T04:37:22;102358.75;;;8.47;79.15
53647;BME280;39550;52.230;5.194;2023-04-09T04:39:48;102334.28;;;8.35;78.83
53647;BME280;39550;52.230;5.194;2023-04-09T04:42:13;102404.31;;;8.72;79.82
53647;BME280;39550;52.230;5.194;2023-04-09T04:44:38;102386.78;;;8.62;78.99
53647;BME280;39550;52.230;5.194;2023-04-09T04:47:04;102385.00;;;8.61;79.20
53647;BME280;39550;52.230;5.194;2023-04-09T04:49:29;102409.44;;;8.72;78.97
53647;BME280;39550;52.230;5.194;2023-04-09T04:51:55;102347.75;;;8.30;79.09
53647;BME280;39550;52.230;5.194;2023-04-09T04:54:21;102398.81;;;8.63;79.11
53647;BME280;39550;52.230;5.194;2023-04-09T04:56:46;102391.78;;;8.59;80.05
53647;BME280;39550;52.230;5.194;2023-04-09T04:59:11;102337.38;;;8.27;79.28
53647;BME280;39550;52.230;5.194;2023-04-09T05:01:36;102326.06;;;8.23;79.55
53647;BME280;39550;52.230;5.194;2023-04-09T05:04:02;102405.84;;;8.67;79.75
53647;BME280;39550;52.230;5.194;2023-04-09T05:06:28;102355.84;;;8.39;79.46
53647;BME280;39550;52.230;5.194;2023-04-09T05:08:54;102418.88;;;8.72;79.51
53647;BME280;39550;52.230;5.194;2023-04-09T05:11:23;102362.72;;;8.40;80.24
53647;BME280;39550;52.230;5.194;2023-04-09T05:13:48;102420.56;;;8.71;79.86
53647;BME280;39550;52.230;5.194;2023-04-09T05:16:15;102342.63;;;8.30;79.88
53647;BME280;39550;52.230;5.194;2023-04-09T05:18:41;102409.38;;;8.71;80.03
53647;BME280;39550;52.230;5.194;2023-04-09T05:21:07;102362.88;;;8.43;79.85
53647;BME280;39550;52.230;5.194;2023-04-09T05:23:32;102341.66;;;8.28;79.27
53647;BME280;39550;52.230;5.194;2023-04-09T05:25:57;102366.13;;;8.39;79.99
53647;BME280;39550;52.230;5.194;2023-04-09T05:28:23;102380.38;;;8.52;79.72
53647;BME280;39550;52.230;5.194;2023-04-09T05:30:48;102357.34;;;8.34;79.66
53647;BME280;39550;52.230;5.194;2023-04-09T05:33:13;102339.66;;;8.21;79.03
53647;BME280;39550;52.230;5.194;2023-04-09T05:35:39;102379.91;;;8.41;79.30
53647;BME280;39550;52.230;5.194;2023-04-09T05:38:04;102403.56;;;8.54;79.78
53647;BME280;39550;52.230;5.194;2023-04-09T05:40:30;102353.69;;;8.29;79.86
53647;BME280;39550;52.230;5.194;2023-04-09T05:42:55;102365.75;;;8.30;79.30
53647;BME280;39550;52.230;5.194;2023-04-09T05:45:20;102351.00;;;8.26;79.90
53647;BME280;39550;52.230;5.194;2023-04-09T05:47:46;102411.50;;;8.60;80.02
53647;BME280;39550;52.230;5.194;2023-04-09T05:50:12;102416.66;;;8.60;79.55
53647;BME280;39550;52.230;5.194;2023-04-09T05:52:37;102355.19;;;8.24;80.08
53647;BME280;39550;52.230;5.194;2023-04-09T05:55:03;102418.69;;;8.67;79.71
53647;BME280;39550;52.230;5.194;2023-04-09T05:57:29;102401.81;;;8.52;79.90
53647;BME280;39550;52.230;5.194;2023-04-09T05:59:55;102410.66;;;8.59;79.49
53647;BME280;39550;52.230;5.194;2023-04-09T06:02:21;102435.72;;;8.65;79.73
53647;BME280;39550;52.230;5.194;2023-04-09T06:04:46;102392.22;;;8.48;79.25
53647;BME280;39550;52.230;5.194;2023-04-09T06:07:11;102395.69;;;8.49;79.57
53647;BME280;39550;52.230;5.194;2023-04-09T06:09:37;102388.56;;;8.43;79.79
53647;BME280;39550;52.230;5.194;2023-04-09T06:12:02;102377.22;;;8.38;79.08
53647;BME280;39550;52.230;5.194;2023-04-09T06:14:28;102427.94;;;8.63;79.50
53647;BME280;39550;52.230;5.194;2023-04-09T06:16:57;102375.16;;;8.29;79.60
53647;BME280;39550;52.230;5.194;2023-04-09T06:19:23;102428.34;;;8.51;79.72
53647;BME280;39550;52.230;5.194;2023-04-09T06:21:48;102388.16;;;8.34;79.27
53647;BME280;39550;52.230;5.194;2023-04-09T06:24:13;102394.38;;;8.39;79.89
53647;BME280;39550;52.230;5.194;2023-04-09T06:26:39;102404.72;;;8.41;79.55
53647;BME280;39550;52.230;5.194;2023-04-09T06:29:04;102446.00;;;8.65;79.49
53647;BME280;39550;52.230;5.194;2023-04-09T06:31:29;102448.56;;;8.65;79.83
53647;BME280;39550;52.230;5.194;2023-04-09T06:33:55;102376.63;;;8.24;79.22
53647;BME280;39550;52.230;5.194;2023-04-09T06:36:20;102451.13;;;8.65;79.61
53647;BME280;39550;52.230;5.194;2023-04-09T06:38:45;102433.59;;;8.55;79.48
53647;BME280;39550;52.230;5.194;2023-04-09T06:41:10;102428.47;;;8.55;79.40
53647;BME280;39550;52.230;5.194;2023-04-09T06:43:36;102425.66;;;8.50;79.43
53647;BME280;39550;52.230;5.194;2023-04-09T06:46:02;102390.81;;;8.35;79.35
53647;BME280;39550;52.230;5.194;2023-04-09T06:48:27;102402.09;;;8.39;79.72
53647;BME280;39550;52.230;5.194;2023-04-09T06:50:53;102446.00;;;8.65;79.28
53647;BME280;39550;52.230;5.194;2023-04-09T06:53:18;102428.34;;;8.51;79.29
53647;BME280;39550;52.230;5.194;2023-04-09T06:55:44;102394.91;;;8.32;79.68
53647;BME280;39550;52.230;5.194;2023-04-09T06:58:09;102381.78;;;8.24;79.30
53647;BME280;39550;52.230;5.194;2023-04-09T07:00:35;102373.09;;;8.22;79.25
53647;BME280;39550;52.230;5.194;2023-04-09T07:03:00;102434.53;;;8.57;79.36
53647;BME280;39550;52.230;5.194;2023-04-09T07:05:25;102377.38;;;8.22;79.02
53647;BME280;39550;52.230;5.194;2023-04-09T07:07:51;102451.88;;;8.62;79.43
53647;BME280;39550;52.230;5.194;2023-04-09T07:10:16;102429.94;;;8.49;79.33
53647;BME280;39550;52.230;5.194;2023-04-09T07:12:41;102407.22;;;8.39;79.10
53647;BME280;39550;52.230;5.194;2023-04-09T07:15:07;102398.31;;;8.31;79.22
53647;BME280;39550;52.230;5.194;2023-04-09T07:17:33;102391.16;;;8.24;79.47
53647;BME280;39550;52.230;5.194;2023-04-09T07:19:59;102372.13;;;8.18;78.99
53647;BME280;39550;52.230;5.194;2023-04-09T07:22:27;102450.00;;;8.58;79.23
53647;BME280;39550;52.230;5.194;2023-04-09T07:24:53;102457.09;;;8.64;79.19
53647;BME280;39550;52.230;5.194;2023-04-09T07:27:23;102458.84;;;8.65;79.38
53647;BME280;39550;52.230;5.194;2023-04-09T07:29:54;102458.78;;;8.63;78.89
53647;BME280;39550;52.230;5.194;2023-04-09T07:32:20;102392.09;;;8.26;78.91
53647;BME280;39550;52.230;5.194;2023-04-09T07:34:46;102464.72;;;8.62;78.95
53647;BME280;39550;52.230;5.194;2023-04-09T07:37:11;102408.72;;;8.34;78.73
53647;BME280;39550;52.230;5.194;2023-04-09T07:39:37;102368.34;;;8.10;79.36
53647;BME280;39550;52.230;5.194;2023-04-09T07:42:03;102387.66;;;8.22;78.82
53647;BME280;39550;52.230;5.194;2023-04-09T07:44:33;102465.63;;;8.63;78.48
53647;BME280;39550;52.230;5.194;2023-04-09T07:46:59;102436.84;;;8.50;79.10
53647;BME280;39550;52.230;5.194;2023-04-09T07:49:25;102428.25;;;8.50;79.28
53647;BME280;39550;52.230;5.194;2023-04-09T07:51:50;102425.66;;;8.50;78.61
53647;BME280;39550;52.230;5.194;2023-04-09T07:54:15;102394.91;;;8.32;78.38
53647;BME280;39550;52.230;5.194;2023-04-09T07:56:44;102433.72;;;8.58;78.43
53647;BME280;39550;52.230;5.194;2023-04-09T07:59:12;102425.88;;;8.55;78.04
53647;BME280;39550;52.230;5.194;2023-04-09T08:01:39;102421.66;;;8.57;78.48
53647;BME280;39550;52.230;5.194;2023-04-09T08:04:04;102431.94;;;8.57;78.60
53647;BME280;39550;52.230;5.194;2023-04-09T08:06:30;102412.13;;;8.54;78.58
53647;BME280;39550;52.230;5.194;2023-04-09T08:08:55;102407.50;;;8.45;78.83
53647;BME280;39550;52.230;5.194;2023-04-09T08:11:20;102394.50;;;8.42;78.71
53647;BME280;39550;52.230;5.194;2023-04-09T08:13:52;102393.44;;;8.37;78.34
53647;BME280;39550;52.230;5.194;2023-04-09T08:16:18;102403.97;;;8.43;78.42
53647;BME280;39550;52.230;5.194;2023-04-09T08:18:45;102386.41;;;8.33;78.45
53647;BME280;39550;52.230;5.194;2023-04-09T08:21:11;102460.16;;;8.76;78.44
53647;BME280;39550;52.230;5.194;2023-04-09T08:23:36;102452.44;;;8.76;78.58
53647;BME280;39550;52.230;5.194;2023-04-09T08:26:02;102362.09;;;8.25;78.40
53647;BME280;39550;52.230;5.194;2023-04-09T08:28:27;102428.91;;;8.65;78.29
53647;BME280;39550;52.230;5.194;2023-04-09T08:30:52;102453.53;;;8.81;78.09
53647;BME280;39550;52.230;5.194;2023-04-09T08:33:18;102416.66;;;8.60;78.40
53647;BME280;39550;52.230;5.194;2023-04-09T08:35:43;102445.13;;;8.85;78.28
53647;BME280;39550;52.230;5.194;2023-04-09T08:38:08;102370.59;;;8.43;77.80
53647;BME280;39550;52.230;5.194;2023-04-09T08:40:34;102440.25;;;8.92;77.90
53647;BME280;39550;52.230;5.194;2023-04-09T08:43:03;102392.72;;;8.61;77.83
53647;BME280;39550;52.230;5.194;2023-04-09T08:45:30;102357.75;;;8.43;77.18
53647;BME280;39550;52.230;5.194;2023-04-09T08:47:55;102441.06;;;8.91;77.72
53647;BME280;39550;52.230;5.194;2023-04-09T08:50:24;102421.94;;;8.84;77.73
53647;BME280;39550;52.230;5.194;2023-04-09T08:52:49;102427.47;;;8.93;77.60
53647;BME280;39550;52.230;5.194;2023-04-09T08:55:15;102438.03;;;9.01;77.71
53647;BME280;39550;52.230;5.194;2023-04-09T08:57:41;102446.88;;;9.08;77.67
53647;BME280;39550;52.230;5.194;2023-04-09T09:00:07;102440.88;;;9.07;77.23
53647;BME280;39550;52.230;5.194;2023-04-09T09:02:33;102426.72;;;8.96;77.08
53647;BME280;39550;52.230;5.194;2023-04-09T09:04:58;102370.41;;;8.60;77.24
53647;BME280;39550;52.230;5.194;2023-04-09T09:07:27;102433.97;;;9.06;77.43
53647;BME280;39550;52.230;5.194;2023-04-09T09:09:58;102332.19;;;8.46;77.24
53647;BME280;39550;52.230;5.194;2023-04-09T09:14:56;102413.00;;;8.97;77.27
53647;BME280;39550;52.230;5.194;2023-04-09T09:17:21;102380.75;;;8.82;77.01
53647;BME280;39550;52.230;5.194;2023-04-09T09:19:46;102418.75;;;9.12;76.93
53647;BME280;39550;52.230;5.194;2023-04-09T09:22:11;102427.53;;;9.17;77.11
53647;BME280;39550;52.230;5.194;2023-04-09T09:24:51;102423.91;;;9.12;77.16
53647;BME280;39550;52.230;5.194;2023-04-09T09:27:36;102428.59;;;9.23;76.51
53647;BME280;39550;52.230;5.194;2023-04-09T09:30:05;102421.53;;;9.17;77.23
53647;BME280;39550;52.230;5.194;2023-04-09T09:32:31;102389.06;;;8.98;76.82
53647;BME280;39550;52.230;5.194;2023-04-09T09:35:01;102337.25;;;8.66;77.11
53647;BME280;39550;52.230;5.194;2023-04-09T09:37:27;102414.78;;;9.20;76.60
53647;BME280;39550;52.230;5.194;2023-04-09T09:39:53;102336.78;;;8.76;76.32
53647;BME280;39550;52.230;5.194;2023-04-09T09:42:18;102367.69;;;8.99;76.21
53647;BME280;39550;52.230;5.194;2023-04-09T09:44:44;102411.81;;;9.32;76.91
53647;BME280;39550;52.230;5.194;2023-04-09T09:47:11;102415.16;;;9.30;76.44
53647;BME280;39550;52.230;5.194;2023-04-09T09:49:37;102365.22;;;9.02;76.73
53647;BME280;39550;52.230;5.194;2023-04-09T09:52:05;102398.66;;;9.25;76.53
53647;BME280;39550;52.230;5.194;2023-04-09T09:54:39;102377.00;;;9.18;76.04
53647;BME280;39550;52.230;5.194;2023-04-09T09:57:06;102356.81;;;9.06;75.87
53647;BME280;39550;52.230;5.194;2023-04-09T09:59:36;102372.59;;;9.15;76.25
53647;BME280;39550;52.230;5.194;2023-04-09T10:02:05;102383.59;;;9.34;76.13
53647;BME280;39550;52.230;5.194;2023-04-09T10:04:34;102369.66;;;9.29;75.79
53647;BME280;39550;52.230;5.194;2023-04-09T10:07:03;102339.97;;;9.14;75.71
53647;BME280;39550;52.230;5.194;2023-04-09T10:09:29;102324.44;;;9.11;75.69
53647;BME280;39550;52.230;5.194;2023-04-09T10:11:56;102399.47;;;9.46;76.28
53647;BME280;39550;52.230;5.194;2023-04-09T10:14:23;102331.25;;;9.11;75.72
53647;BME280;39550;52.230;5.194;2023-04-09T10:16:50;102371.88;;;9.42;75.86
53647;BME280;39550;52.230;5.194;2023-04-09T10:19:15;102354.47;;;9.35;76.14
53647;BME280;39550;52.230;5.194;2023-04-09T10:24:07;102308.25;;;9.14;76.10
53647;BME280;39550;52.230;5.194;2023-04-09T10:26:34;102323.25;;;9.26;76.25
53647;BME280;39550;52.230;5.194;2023-04-09T10:29:07;102356.78;;;9.51;76.04
53647;BME280;39550;52.230;5.194;2023-04-09T10:31:47;102350.69;;;9.49;75.37
53647;BME280;39550;52.230;5.194;2023-04-09T10:34:15;102334.59;;;9.55;75.95
53647;BME280;39550;52.230;5.194;2023-04-09T10:36:42;102346.72;;;9.58;75.58
53647;BME280;39550;52.230;5.194;2023-04-09T10:39:12;102342.28;;;9.53;75.93
53647;BME280;39550;52.230;5.194;2023-04-09T10:41:41;102331.94;;;9.52;75.98
53647;BME280;39550;52.230;5.194;2023-04-09T10:44:25;102255.81;;;9.10;75.78
53647;BME280;39550;52.230;5.194;2023-04-09T10:46:54;102341.09;;;9.68;75.88
53647;BME280;39550;52.230;5.194;2023-04-09T10:49:24;102222.75;;;8.97;75.99
53647;BME280;39550;52.230;5.194;2023-04-09T10:51:51;102322.84;;;9.62;76.14
53647;BME280;39550;52.230;5.194;2023-04-09T10:59:40;102328.09;;;9.65;76.21
53647;BME280;39550;52.230;5.194;2023-04-09T11:02:19;102280.13;;;9.43;75.81
53647;BME280;39550;52.230;5.194;2023-04-09T11:07:32;102327.38;;;9.69;75.84
53647;BME280;39550;52.230;5.194;2023-04-09T11:09:59;102325.84;;;9.74;75.96
53647;BME280;39550;52.230;5.194;2023-04-09T11:12:24;102313.53;;;9.65;75.67
53647;BME280;39550;52.230;5.194;2023-04-09T11:14:49;102319.88;;;9.75;75.86
53647;BME280;39550;52.230;5.194;2023-04-09T11:17:15;102316.50;;;9.76;76.01
53647;BME280;39550;52.230;5.194;2023-04-09T11:19:43;102302.47;;;9.68;75.53
53647;BME280;39550;52.230;5.194;2023-04-09T11:22:09;102320.22;;;9.84;76.11
53647;BME280;39550;52.230;5.194;2023-04-09T11:24:41;102322.78;;;9.84;75.97
53647;BME280;39550;52.230;5.194;2023-04-09T11:27:07;102312.50;;;9.84;75.77
53647;BME280;39550;52.230;5.194;2023-04-09T11:29:34;102309.03;;;9.84;75.80
53647;BME280;39550;52.230;5.194;2023-04-09T11:31:59;102283.03;;;9.76;75.59
53647;BME280;39550;52.230;5.194;2023-04-09T11:34:27;102273.66;;;9.78;75.85
53647;BME280;39550;52.230;5.194;2023-04-09T11:36:53;102299.75;;;9.89;75.58
53647;BME280;39550;52.230;5.194;2023-04-09T11:39:18;102218.16;;;9.36;75.52
53647;BME280;39550;52.230;5.194;2023-04-09T11:41:44;102300.72;;;9.93;75.83
53647;BME280;39550;52.230;5.194;2023-04-09T11:44:09;102310.31;;;9.97;75.76
53647;BME280;39550;52.230;5.194;2023-04-09T11:46:35;102231.28;;;9.68;74.93
53647;BME280;39550;52.230;5.194;2023-04-09T11:49:01;102243.06;;;9.87;75.02
53647;BME280;39550;52.230;5.194;2023-04-09T11:51:28;102294.53;;;10.13;74.80
53647;BME280;39550;52.230;5.194;2023-04-09T11:53:56;102298.69;;;10.08;74.95
53647;BME280;39550;52.230;5.194;2023-04-09T11:56:28;102286.41;;;10.01;74.80
53647;BME280;39550;52.230;5.194;2023-04-09T11:58:53;102269.00;;;9.94;75.06
53647;BME280;39550;52.230;5.194;2023-04-09T12:01:20;102256.03;;;9.91;74.97
53647;BME280;39550;52.230;5.194;2023-04-09T12:03:51;102260.00;;;10.07;74.88
53647;BME280;39550;52.230;5.194;2023-04-09T12:06:19;102232.88;;;9.91;74.69
53647;BME280;39550;52.230;5.194;2023-04-09T12:08:46;102203.22;;;9.76;74.64
53647;BME280;39550;52.230;5.194;2023-04-09T12:11:13;102215.97;;;9.73;74.67
53647;BME280;39550;52.230;5.194;2023-04-09T12:13:39;102263.31;;;10.02;74.83
53647;BME280;39550;52.230;5.194;2023-04-09T12:16:09;102275.06;;;10.21;74.60
53647;BME280;39550;52.230;5.194;2023-04-09T12:18:35;102269.63;;;10.38;74.00
53647;BME280;39550;52.230;5.194;2023-04-09T12:21:02;102219.66;;;10.07;73.87
53647;BME280;39550;52.230;5.194;2023-04-09T12:23:27;102262.34;;;10.26;74.04
53647;BME280;39550;52.230;5.194;2023-04-09T12:25:55;102252.38;;;10.10;74.26
53647;BME280;39550;52.230;5.194;2023-04-09T12:28:23;102290.84;;;10.31;74.61
53647;BME280;39550;52.230;5.194;2023-04-09T12:30:49;102290.75;;;10.28;75.23
53647;BME280;39550;52.230;5.194;2023-04-09T12:33:14;102256.72;;;10.11;74.96
53647;BME280;39550;52.230;5.194;2023-04-09T12:35:40;102239.31;;;10.05;74.87
53647;BME280;39550;52.230;5.194;2023-04-09T12:38:05;102282.41;;;10.35;74.59
53647;BME280;39550;52.230;5.194;2023-04-09T12:40:31;102246.00;;;10.26;73.96
53647;BME280;39550;52.230;5.194;2023-04-09T12:42:56;102274.72;;;10.36;74.01
53647;BME280;39550;52.230;5.194;2023-04-09T12:45:22;102202.94;;;9.94;74.72
53647;BME280;39550;52.230;5.194;2023-04-09T12:47:47;102261.72;;;10.33;74.90
53647;BME280;39550;52.230;5.194;2023-04-09T12:50:13;102213.16;;;10.46;73.50
53647;BME280;39550;52.230;5.194;2023-04-09T12:52:40;102185.41;;;10.66;72.16
53647;BME280;39550;52.230;5.194;2023-04-09T12:55:06;102250.47;;;11.16;72.04
53647;BME280;39550;52.230;5.194;2023-04-09T12:57:32;102272.31;;;10.99;71.99
53647;BME280;39550;52.230;5.194;2023-04-09T12:59:58;102271.53;;;11.01;71.65
53647;BME280;39550;52.230;5.194;2023-04-09T13:02:23;102265.72;;;10.80;72.37
53647;BME280;39550;52.230;5.194;2023-04-09T13:04:49;102271.66;;;10.77;74.21
53647;BME280;39550;52.230;5.194;2023-04-09T13:07:15;102277.47;;;10.70;73.90
53647;BME280;39550;52.230;5.194;2023-04-09T13:09:43;102216.97;;;10.31;74.81
53647;BME280;39550;52.230;5.194;2023-04-09T13:12:08;102233.16;;;10.27;74.08
53647;BME280;39550;52.230;5.194;2023-04-09T13:14:35;102258.66;;;10.45;74.89
53647;BME280;39550;52.230;5.194;2023-04-09T13:17:01;102263.91;;;10.47;75.02
53647;BME280;39550;52.230;5.194;2023-04-09T13:19:26;102213.16;;;10.18;74.47